Time,TemperatureF,DewpointF,PressureIn,WindDirection,WindDirectionDegrees,WindSpeedMPH,WindSpeedGustMPH,Humidity,HourlyPrecipIn,Conditions,Clouds,dailyrainin,SoftwareType,DateUTC
2013-03-29 00:00:00,40.9,35.5,30.03,SSW,208,0.0,0.0,81,0.00,,,0.00,WeatherCatV1.11B39,2013-03-29 04:00:00,
2013-03-29 00:05:00,40.8,35.4,30.03,SSW,208,0.0,0.0,81,0.00,,,0.00,WeatherCatV1.11B39,2013-03-29 04:05:00,
2013-03-29 00:10:00,40.7,35.3,30.03,SSW,208,0.0,0.0,81,0.00,,,0.00,WeatherCatV1.11B39,2013-03-29 04:10:00,
2013-03-29 00:15:00,40.5,35.1,30.03,SSW,208,0.0,0.0,81,0.00,,,0.00,WeatherCatV1.11B39,2013-03-29 04:15:00,
2013-03-29 00:20:00,40.5,35.1,30.03,SSW,208,0.0,0.0,81,0.00,,,0.00,WeatherCatV1.11B39,2013-03-29 04:20:00,
2013-03-29 00:25:00,40.5,35.1,30.03,SSW,208,0.0,0.0,81,0.00,,,0.00,WeatherCatV1.11B39,2013-03-29 04:25:00,
2013-03-29 00:30:00,40.3,35.3,30.03,SSW,208,0.0,0.0,82,0.00,,,0.00,WeatherCatV1.11B39,2013-03-29 04:30:00,
2013-03-29 00:35:00,40.3,34.9,30.03,SSW,208,0.0,0.0,81,0.00,,,0.00,WeatherCatV1.11B39,2013-03-29 04:35:00,
2013-03-29 00:40:00,40.3,34.3,30.03,SSW,208,0.0,0.0,79,0.00,,,0.00,WeatherCatV1.11B39,2013-03-29 04:40:00,
2013-03-29 00:45:00,40.4,34.4,30.03,SSW,208,0.0,0.0,79,0.00,,,0.00,WeatherCatV1.11B39,2013-03-29 04:45:00,
2013-03-29 00:50:00,40.4,34.4,30.03,SSW,208,0.0,0.0,79,0.00,,,0.00,WeatherCatV1.11B39,2013-03-29 04:50:00,
2013-03-29 00:55:00,40.5,34.2,30.03,SSW,208,0.0,0.0,78,0.00,,,0.00,WeatherCatV1.11B39,2013-03-29 04:55:00,
2013-03-29 01:00:00,40.8,33.5,30.03,SSW,208,0.0,0.0,75,0.00,,,0.00,WeatherCatV1.11B39,2013-03-29 05:00:00,
2013-03-29 01:05:00,41.2,33.2,30.03,SSW,202,0.0,1.0,73,0.00,,,0.00,WeatherCatV1.11B39,2013-03-29 05:05:00,
2013-03-29 01:10:00,41.1,33.5,30.03,SSW,208,0.0,0.0,74,0.00,,,0.00,WeatherCatV1.11B39,2013-03-29 05:10:00,
2013-03-29 01:15:00,41.3,33.0,30.03,SSW,202,0.0,0.0,72,0.00,,,0.00,WeatherCatV1.11B39,2013-03-29 05:15:00,
2013-03-29 01:20:00,41.1,33.1,30.03,SSW,208,0.0,0.0,73,0.00,,,0.00,WeatherCatV1.11B39,2013-03-29 05:20:00,
2013-03-29 01:25:00,41.5,32.8,30.03,SSW,202,0.0,0.0,71,0.00,,,0.00,WeatherCatV1.11B39,2013-03-29 05:25:00,
2013-03-29 01:30:00,41.5,32.8,30.03,SSW,202,0.0,0.0,71,0.00,,,0.00,WeatherCatV1.11B39,2013-03-29 05:30:00,
2013-03-29 01:35:00,41.3,33.3,30.03,SSW,208,0.0,0.0,73,0.00,,,0.00,WeatherCatV1.11B39,2013-03-29 05:35:00,
2013-03-29 01:40:00,41.3,33.3,30.03,SSW,208,0.0,0.0,73,0.00,,,0.00,WeatherCatV1.11B39,2013-03-29 05:40:00,
2013-03-29 01:45:00,41.2,32.9,30.04,SW,225,0.0,0.0,72,0.00,,,0.00,WeatherCatV1.11B39,2013-03-29 05:45:00,
2013-03-29 01:50:00,41.2,32.9,30.04,SW,225,0.0,0.0,72,0.00,,,0.00,WeatherCatV1.11B39,2013-03-29 05:50:00,
2013-03-29 01:55:00,41.3,33.3,30.03,SSW,208,0.0,0.0,73,0.00,,,0.00,WeatherCatV1.11B39,2013-03-29 05:55:00,
2013-03-29 02:00:00,41.3,33.3,30.03,SSW,208,0.0,0.0,73,0.00,,,0.00,WeatherCatV1.11B39,2013-03-29 06:00:00,
2013-03-29 02:05:00,40.2,32.6,30.04,SW,225,0.0,0.0,74,0.00,,,0.00,WeatherCatV1.11B39,2013-03-29 06:05:00,
2013-03-29 02:10:00,40.2,32.6,30.04,SW,225,0.0,0.0,74,0.00,,,0.00,WeatherCatV1.11B39,2013-03-29 06:10:00,
2013-03-29 02:15:00,39.9,32.3,30.04,SW,225,0.0,0.0,74,0.00,,,0.00,WeatherCatV1.11B39,2013-03-29 06:15:00,
2013-03-29 02:20:00,39.9,32.3,30.04,SW,225,0.0,0.0,74,0.00,,,0.00,WeatherCatV1.11B39,2013-03-29 06:20:00,
2013-03-29 02:25:00,39.5,31.9,30.04,SW,225,0.0,1.0,74,0.00,,,0.00,WeatherCatV1.11B39,2013-03-29 06:25:00,
2013-03-29 02:30:00,39.5,31.9,30.04,SW,225,0.0,1.0,74,0.00,,,0.00,WeatherCatV1.11B39,2013-03-29 06:30:00,
2013-03-29 02:35:00,39.2,31.9,30.04,SW,225,0.0,0.0,75,0.00,,,0.00,WeatherCatV1.11B39,2013-03-29 06:35:00,
2013-03-29 02:40:00,39.2,31.9,30.04,SW,225,0.0,0.0,75,0.00,,,0.00,WeatherCatV1.11B39,2013-03-29 06:40:00,
2013-03-29 02:45:00,38.8,31.9,30.04,SW,225,0.0,0.0,76,0.00,,,0.00,WeatherCatV1.11B39,2013-03-29 06:45:00,
2013-03-29 02:50:00,38.8,31.9,30.04,SW,225,0.0,0.0,76,0.00,,,0.00,WeatherCatV1.11B39,2013-03-29 06:50:00,
2013-03-29 02:55:00,38.5,31.6,30.04,SW,225,0.0,0.0,76,0.00,,,0.00,WeatherCatV1.11B39,2013-03-29 06:55:00,
2013-03-29 03:00:00,38.5,31.6,30.04,SW,225,0.0,0.0,76,0.00,,,0.00,WeatherCatV1.11B39,2013-03-29 07:00:00,
2013-03-29 03:05:00,38.5,31.6,30.04,SW,225,0.0,0.0,76,0.00,,,0.00,WeatherCatV1.11B39,2013-03-29 07:05:00,
2013-03-29 03:10:00,38.5,31.6,30.04,SW,225,0.0,0.0,76,0.00,,,0.00,WeatherCatV1.11B39,2013-03-29 07:10:00,
2013-03-29 03:15:00,38.3,31.4,30.04,SW,225,0.0,1.0,76,0.00,,,0.00,WeatherCatV1.11B39,2013-03-29 07:15:00,
2013-03-29 03:20:00,38.3,31.4,30.04,SW,225,0.0,1.0,76,0.00,,,0.00,WeatherCatV1.11B39,2013-03-29 07:20:00,
2013-03-29 03:25:00,38.1,31.5,30.04,SW,225,0.0,0.0,77,0.00,,,0.00,WeatherCatV1.11B39,2013-03-29 07:25:00,
2013-03-29 03:30:00,38.1,31.5,30.04,SW,225,0.0,0.0,77,0.00,,,0.00,WeatherCatV1.11B39,2013-03-29 07:30:00,
2013-03-29 03:35:00,38.0,31.4,30.04,SW,225,0.0,0.0,77,0.00,,,0.00,WeatherCatV1.11B39,2013-03-29 07:35:00,
2013-03-29 03:40:00,38.0,31.4,30.04,SW,225,0.0,0.0,77,0.00,,,0.00,WeatherCatV1.11B39,2013-03-29 07:40:00,
2013-03-29 03:45:00,38.0,31.4,30.04,SW,225,0.0,1.0,77,0.00,,,0.00,WeatherCatV1.11B39,2013-03-29 07:45:00,
2013-03-29 03:50:00,38.0,31.4,30.04,SW,225,0.0,1.0,77,0.00,,,0.00,WeatherCatV1.11B39,2013-03-29 07:50:00,
2013-03-29 03:55:00,37.8,31.2,30.04,SW,225,0.0,1.0,77,0.00,,,0.00,WeatherCatV1.11B39,2013-03-29 07:55:00,
2013-03-29 04:00:00,37.8,31.2,30.04,SW,225,0.0,1.0,77,0.00,,,0.00,WeatherCatV1.11B39,2013-03-29 08:00:00,
2013-03-29 04:05:00,37.6,31.0,30.04,SW,225,0.0,0.0,77,0.00,,,0.00,WeatherCatV1.11B39,2013-03-29 08:05:00,
2013-03-29 04:10:00,37.6,31.0,30.04,SW,225,0.0,0.0,77,0.00,,,0.00,WeatherCatV1.11B39,2013-03-29 08:10:00,
2013-03-29 04:15:00,37.1,30.9,30.04,SW,225,0.0,0.0,78,0.00,,,0.00,WeatherCatV1.11B39,2013-03-29 08:15:00,
2013-03-29 04:20:00,37.1,30.9,30.04,SW,225,0.0,0.0,78,0.00,,,0.00,WeatherCatV1.11B39,2013-03-29 08:20:00,
2013-03-29 04:25:00,36.7,30.8,30.04,SW,225,0.0,0.0,79,0.00,,,0.00,WeatherCatV1.11B39,2013-03-29 08:25:00,
2013-03-29 04:30:00,36.7,30.8,30.04,SW,225,0.0,0.0,79,0.00,,,0.00,WeatherCatV1.11B39,2013-03-29 08:30:00,
2013-03-29 04:35:00,36.4,30.8,30.03,SW,225,0.0,0.0,80,0.00,,,0.00,WeatherCatV1.11B39,2013-03-29 08:35:00,
2013-03-29 04:40:00,36.4,30.8,30.03,SW,225,0.0,0.0,80,0.00,,,0.00,WeatherCatV1.11B39,2013-03-29 08:40:00,
2013-03-29 04:45:00,37.0,30.8,30.03,SW,225,0.0,1.0,78,0.00,,,0.00,WeatherCatV1.11B39,2013-03-29 08:45:00,
2013-03-29 04:50:00,37.0,30.8,30.03,SW,225,0.0,1.0,78,0.00,,,0.00,WeatherCatV1.11B39,2013-03-29 08:50:00,
2013-03-29 04:55:00,37.0,30.8,30.04,SW,225,0.0,0.0,78,0.00,,,0.00,WeatherCatV1.11B39,2013-03-29 08:55:00,
2013-03-29 05:00:00,37.0,30.8,30.04,SW,225,0.0,0.0,78,0.00,,,0.00,WeatherCatV1.11B39,2013-03-29 09:00:00,
2013-03-29 05:05:00,37.1,30.9,30.04,SW,225,0.0,0.0,78,0.00,,,0.00,WeatherCatV1.11B39,2013-03-29 09:05:00,
2013-03-29 05:10:00,37.1,30.9,30.04,SW,225,0.0,0.0,78,0.00,,,0.00,WeatherCatV1.11B39,2013-03-29 09:10:00,
2013-03-29 05:15:00,37.0,30.8,30.03,SW,225,0.0,0.0,78,0.00,,,0.00,WeatherCatV1.11B39,2013-03-29 09:15:00,
2013-03-29 05:20:00,37.0,30.8,30.03,SW,225,0.0,0.0,78,0.00,,,0.00,WeatherCatV1.11B39,2013-03-29 09:20:00,
2013-03-29 05:25:00,36.5,30.6,30.03,SW,225,0.0,0.0,79,0.00,,,0.00,WeatherCatV1.11B39,2013-03-29 09:25:00,
2013-03-29 05:30:00,36.5,30.6,30.03,SW,225,0.0,0.0,79,0.00,,,0.00,WeatherCatV1.11B39,2013-03-29 09:30:00,
2013-03-29 05:35:00,36.1,30.2,30.03,SW,225,0.0,0.0,79,0.00,,,0.00,WeatherCatV1.11B39,2013-03-29 09:35:00,
2013-03-29 05:40:00,36.1,30.2,30.03,SW,225,0.0,0.0,79,0.00,,,0.00,WeatherCatV1.11B39,2013-03-29 09:40:00,
2013-03-29 05:45:00,36.0,30.7,30.03,SW,225,0.0,0.0,81,0.00,,,0.00,WeatherCatV1.11B39,2013-03-29 09:45:00,
2013-03-29 05:50:00,36.0,30.7,30.03,SW,225,0.0,0.0,81,0.00,,,0.00,WeatherCatV1.11B39,2013-03-29 09:50:00,
2013-03-29 05:55:00,36.0,30.4,30.03,SW,225,0.0,0.0,80,0.00,,,0.00,WeatherCatV1.11B39,2013-03-29 09:55:00,
2013-03-29 06:00:00,36.0,30.4,30.03,SW,225,0.0,0.0,80,0.00,,,0.00,WeatherCatV1.11B39,2013-03-29 10:00:00,
2013-03-29 06:05:00,35.5,30.3,30.04,SW,225,0.0,0.0,81,0.00,,,0.00,WeatherCatV1.11B39,2013-03-29 10:05:00,
2013-03-29 06:10:00,35.5,30.3,30.04,SW,225,0.0,0.0,81,0.00,,,0.00,WeatherCatV1.11B39,2013-03-29 10:10:00,
2013-03-29 06:15:00,35.2,30.3,30.03,SW,225,0.0,0.0,82,0.00,,,0.00,WeatherCatV1.11B39,2013-03-29 10:15:00,
2013-03-29 06:20:00,35.2,30.3,30.03,SW,225,0.0,0.0,82,0.00,,,0.00,WeatherCatV1.11B39,2013-03-29 10:20:00,
2013-03-29 06:25:00,35.1,30.2,30.04,SW,225,0.0,1.0,82,0.00,,,0.00,WeatherCatV1.11B39,2013-03-29 10:25:00,
2013-03-29 06:30:00,35.1,30.2,30.04,SW,225,0.0,1.0,82,0.00,,,0.00,WeatherCatV1.11B39,2013-03-29 10:30:00,
2013-03-29 06:35:00,35.3,30.4,30.04,SW,225,0.0,1.0,82,0.00,,,0.00,WeatherCatV1.11B39,2013-03-29 10:35:00,
2013-03-29 06:40:00,35.3,30.4,30.04,SW,225,0.0,1.0,82,0.00,,,0.00,WeatherCatV1.11B39,2013-03-29 10:40:00,
2013-03-29 06:45:00,35.0,30.1,30.04,SW,225,0.0,0.0,82,0.00,,,0.00,WeatherCatV1.11B39,2013-03-29 10:45:00,
2013-03-29 06:50:00,35.0,30.1,30.04,SW,225,0.0,0.0,82,0.00,,,0.00,WeatherCatV1.11B39,2013-03-29 10:50:00,
2013-03-29 06:55:00,34.8,30.2,30.04,SW,225,0.0,0.0,83,0.00,,,0.00,WeatherCatV1.11B39,2013-03-29 10:55:00,
2013-03-29 07:00:00,34.8,30.2,30.04,SW,225,0.0,0.0,83,0.00,,,0.00,WeatherCatV1.11B39,2013-03-29 11:00:00,
2013-03-29 07:05:00,34.5,30.2,30.04,SW,225,0.0,0.0,84,0.00,,,0.00,WeatherCatV1.11B39,2013-03-29 11:05:00,
2013-03-29 07:10:00,34.5,30.2,30.04,SW,225,0.0,0.0,84,0.00,,,0.00,WeatherCatV1.11B39,2013-03-29 11:10:00,
2013-03-29 07:15:00,34.6,30.3,30.04,SW,225,0.0,0.0,84,0.00,,,0.00,WeatherCatV1.11B39,2013-03-29 11:15:00,
2013-03-29 07:20:00,34.6,30.3,30.04,SW,225,0.0,0.0,84,0.00,,,0.00,WeatherCatV1.11B39,2013-03-29 11:20:00,
2013-03-29 07:25:00,34.4,30.1,30.04,SW,225,0.0,0.0,84,0.00,,,0.00,WeatherCatV1.11B39,2013-03-29 11:25:00,
2013-03-29 07:30:00,34.4,30.1,30.04,SW,225,0.0,0.0,84,0.00,,,0.00,WeatherCatV1.11B39,2013-03-29 11:30:00,
2013-03-29 07:35:00,34.2,30.2,30.05,SW,225,0.0,0.0,85,0.00,,,0.00,WeatherCatV1.11B39,2013-03-29 11:35:00,
2013-03-29 07:40:00,34.2,30.2,30.05,SW,225,0.0,0.0,85,0.00,,,0.00,WeatherCatV1.11B39,2013-03-29 11:40:00,
2013-03-29 07:45:00,34.0,30.0,30.05,SW,225,0.0,0.0,85,0.00,,,0.00,WeatherCatV1.11B39,2013-03-29 11:45:00,
2013-03-29 07:50:00,34.0,30.0,30.05,SW,225,0.0,0.0,85,0.00,,,0.00,WeatherCatV1.11B39,2013-03-29 11:50:00,
2013-03-29 07:55:00,33.7,30.0,30.05,SW,225,0.0,0.0,86,0.00,,,0.00,WeatherCatV1.11B39,2013-03-29 11:55:00,
2013-03-29 08:00:00,33.7,30.0,30.05,SW,225,0.0,0.0,86,0.00,,,0.00,WeatherCatV1.11B39,2013-03-29 12:00:00,
2013-03-29 08:05:00,33.4,29.7,30.05,SW,225,0.0,0.0,86,0.00,,,0.00,WeatherCatV1.11B39,2013-03-29 12:05:00,
2013-03-29 08:10:00,33.4,29.7,30.05,SW,225,0.0,0.0,86,0.00,,,0.00,WeatherCatV1.11B39,2013-03-29 12:10:00,
2013-03-29 08:15:00,33.9,30.5,30.05,SW,225,0.0,1.0,87,0.00,,,0.00,WeatherCatV1.11B39,2013-03-29 12:15:00,
2013-03-29 08:20:00,33.9,30.5,30.05,SW,225,0.0,1.0,87,0.00,,,0.00,WeatherCatV1.11B39,2013-03-29 12:20:00,
2013-03-29 08:25:00,34.7,31.2,30.05,SW,225,0.0,0.0,87,0.00,,,0.00,WeatherCatV1.11B39,2013-03-29 12:25:00,
2013-03-29 08:30:00,34.7,31.2,30.05,SW,225,0.0,0.0,87,0.00,,,0.00,WeatherCatV1.11B39,2013-03-29 12:30:00,
2013-03-29 08:35:00,36.5,31.8,30.05,SW,225,0.0,1.0,83,0.00,,,0.00,WeatherCatV1.11B39,2013-03-29 12:35:00,
2013-03-29 08:40:00,36.5,31.8,30.05,SW,225,0.0,1.0,83,0.00,,,0.00,WeatherCatV1.11B39,2013-03-29 12:40:00,
2013-03-29 08:45:00,38.0,32.4,30.05,SSW,202,0.0,2.0,80,0.00,,,0.00,WeatherCatV1.11B39,2013-03-29 12:45:00,
2013-03-29 08:50:00,38.0,32.4,30.05,SSW,202,0.0,2.0,80,0.00,,,0.00,WeatherCatV1.11B39,2013-03-29 12:50:00,
2013-03-29 08:55:00,39.3,33.0,30.05,SW,225,0.0,3.0,78,0.00,,,0.00,WeatherCatV1.11B39,2013-03-29 12:55:00,
2013-03-29 09:00:00,39.3,33.0,30.05,SW,225,0.0,3.0,78,0.00,,,0.00,WeatherCatV1.11B39,2013-03-29 13:00:00,
2013-03-29 09:05:00,40.7,33.4,30.05,SSW,202,1.0,4.0,75,0.00,,,0.00,WeatherCatV1.11B39,2013-03-29 13:05:00,
2013-03-29 09:10:00,40.7,33.4,30.05,SSW,202,1.0,4.0,75,0.00,,,0.00,WeatherCatV1.11B39,2013-03-29 13:10:00,
2013-03-29 09:15:00,42.2,33.5,30.05,SSW,202,1.0,5.0,71,0.00,,,0.00,WeatherCatV1.11B39,2013-03-29 13:15:00,
2013-03-29 09:20:00,42.2,33.5,30.05,SSW,202,1.0,5.0,71,0.00,,,0.00,WeatherCatV1.11B39,2013-03-29 13:20:00,
2013-03-29 09:25:00,43.5,33.7,30.05,SW,225,1.0,5.0,68,0.00,,,0.00,WeatherCatV1.11B39,2013-03-29 13:25:00,
2013-03-29 09:30:00,43.5,33.7,30.05,SW,225,1.0,5.0,68,0.00,,,0.00,WeatherCatV1.11B39,2013-03-29 13:30:00,
2013-03-29 09:35:00,44.6,34.0,30.05,SSW,202,0.0,3.0,66,0.00,,,0.00,WeatherCatV1.11B39,2013-03-29 13:35:00,
2013-03-29 09:40:00,44.6,34.0,30.05,SSW,202,0.0,3.0,66,0.00,,,0.00,WeatherCatV1.11B39,2013-03-29 13:40:00,
2013-03-29 09:45:00,45.3,34.2,30.05,SW,225,1.0,7.0,65,0.00,,,0.00,WeatherCatV1.11B39,2013-03-29 13:45:00,
2013-03-29 09:50:00,45.3,34.2,30.05,SW,225,1.0,7.0,65,0.00,,,0.00,WeatherCatV1.11B39,2013-03-29 13:50:00,
2013-03-29 09:55:00,45.9,34.0,30.05,North,0,1.0,6.0,63,0.00,,,0.00,WeatherCatV1.11B39,2013-03-29 13:55:00,
2013-03-29 10:00:00,45.9,34.0,30.05,North,0,1.0,6.0,63,0.00,,,0.00,WeatherCatV1.11B39,2013-03-29 14:00:00,
2013-03-29 10:05:00,46.6,34.3,30.05,North,0,1.0,7.0,62,0.00,,,0.00,WeatherCatV1.11B39,2013-03-29 14:05:00,
2013-03-29 10:10:00,46.6,34.3,30.05,North,0,1.0,7.0,62,0.00,,,0.00,WeatherCatV1.11B39,2013-03-29 14:10:00,
2013-03-29 10:15:00,47.1,34.8,30.05,SW,225,1.0,7.0,62,0.00,,,0.00,WeatherCatV1.11B39,2013-03-29 14:15:00,
2013-03-29 10:20:00,47.1,34.8,30.05,SW,225,1.0,7.0,62,0.00,,,0.00,WeatherCatV1.11B39,2013-03-29 14:20:00,
2013-03-29 10:25:00,47.9,34.7,30.05,North,0,2.0,9.0,60,0.00,,,0.00,WeatherCatV1.11B39,2013-03-29 14:25:00,
2013-03-29 10:30:00,47.9,34.7,30.05,North,0,2.0,9.0,60,0.00,,,0.00,WeatherCatV1.11B39,2013-03-29 14:30:00,
2013-03-29 10:35:00,48.8,35.5,30.05,North,0,1.0,7.0,60,0.00,,,0.00,WeatherCatV1.11B39,2013-03-29 14:35:00,
2013-03-29 10:40:00,48.8,35.5,30.05,North,0,1.0,7.0,60,0.00,,,0.00,WeatherCatV1.11B39,2013-03-29 14:40:00,
2013-03-29 10:45:00,49.0,34.9,30.05,North,0,2.0,14.0,58,0.00,,,0.00,WeatherCatV1.11B39,2013-03-29 14:45:00,
2013-03-29 10:50:00,49.0,34.9,30.05,North,0,2.0,14.0,58,0.00,,,0.00,WeatherCatV1.11B39,2013-03-29 14:50:00,
2013-03-29 10:55:00,49.2,35.1,30.06,North,0,2.0,11.0,58,0.00,,,0.00,WeatherCatV1.11B39,2013-03-29 14:55:00,
2013-03-29 11:00:00,49.2,35.1,30.06,North,0,2.0,11.0,58,0.00,,,0.00,WeatherCatV1.11B39,2013-03-29 15:00:00,
2013-03-29 11:05:00,49.0,34.4,30.06,North,0,2.0,14.0,57,0.00,,,0.00,WeatherCatV1.11B39,2013-03-29 15:05:00,
2013-03-29 11:10:00,49.0,34.4,30.06,North,0,2.0,14.0,57,0.00,,,0.00,WeatherCatV1.11B39,2013-03-29 15:10:00,
2013-03-29 11:15:00,48.6,34.5,30.06,North,0,2.0,9.0,58,0.00,,,0.00,WeatherCatV1.11B39,2013-03-29 15:15:00,
2013-03-29 11:20:00,48.6,34.5,30.06,North,0,2.0,9.0,58,0.00,,,0.00,WeatherCatV1.11B39,2013-03-29 15:20:00,
2013-03-29 11:25:00,48.5,34.4,30.06,North,0,2.0,7.0,58,0.00,,,0.00,WeatherCatV1.11B39,2013-03-29 15:25:00,
2013-03-29 11:30:00,48.5,34.4,30.06,North,0,2.0,7.0,58,0.00,,,0.00,WeatherCatV1.11B39,2013-03-29 15:30:00,
2013-03-29 11:35:00,49.1,35.0,30.06,North,0,1.0,7.0,58,0.00,,,0.00,WeatherCatV1.11B39,2013-03-29 15:35:00,
2013-03-29 11:40:00,49.1,35.0,30.06,North,0,1.0,7.0,58,0.00,,,0.00,WeatherCatV1.11B39,2013-03-29 15:40:00,
2013-03-29 11:45:00,50.5,34.9,30.06,SSW,202,1.0,7.0,55,0.00,,,0.00,WeatherCatV1.11B39,2013-03-29 15:45:00,
2013-03-29 11:50:00,50.5,34.9,30.06,SSW,202,1.0,7.0,55,0.00,,,0.00,WeatherCatV1.11B39,2013-03-29 15:50:00,
2013-03-29 11:55:00,50.4,34.8,30.06,NNE,22,2.0,7.0,55,0.00,,,0.00,WeatherCatV1.11B39,2013-03-29 15:55:00,
2013-03-29 12:00:00,50.4,34.8,30.06,NNE,22,2.0,7.0,55,0.00,,,0.00,WeatherCatV1.11B39,2013-03-29 16:00:00,
2013-03-29 12:05:00,51.5,35.4,30.06,North,0,1.0,7.0,54,0.00,,,0.00,WeatherCatV1.11B39,2013-03-29 16:05:00,
2013-03-29 12:10:00,51.5,35.4,30.06,North,0,1.0,7.0,54,0.00,,,0.00,WeatherCatV1.11B39,2013-03-29 16:10:00,
2013-03-29 12:15:00,51.7,35.1,30.06,SW,225,1.0,5.0,53,0.00,,,0.00,WeatherCatV1.11B39,2013-03-29 16:15:00,
2013-03-29 12:20:00,51.7,35.1,30.06,SW,225,1.0,5.0,53,0.00,,,0.00,WeatherCatV1.11B39,2013-03-29 16:20:00,
2013-03-29 12:25:00,51.4,34.4,30.06,NNE,22,2.0,8.0,52,0.00,,,0.00,WeatherCatV1.11B39,2013-03-29 16:25:00,
2013-03-29 12:30:00,51.4,34.4,30.06,NNE,22,2.0,8.0,52,0.00,,,0.00,WeatherCatV1.11B39,2013-03-29 16:30:00,
2013-03-29 12:35:00,52.1,35.0,30.06,NNE,22,1.0,6.0,52,0.00,,,0.00,WeatherCatV1.11B39,2013-03-29 16:35:00,
2013-03-29 12:40:00,52.1,35.0,30.06,NNE,22,1.0,6.0,52,0.00,,,0.00,WeatherCatV1.11B39,2013-03-29 16:40:00,
2013-03-29 12:45:00,52.7,34.6,30.05,SW,225,1.0,6.0,50,0.00,,,0.00,WeatherCatV1.11B39,2013-03-29 16:45:00,
2013-03-29 12:50:00,52.7,34.6,30.05,SW,225,1.0,6.0,50,0.00,,,0.00,WeatherCatV1.11B39,2013-03-29 16:50:00,
2013-03-29 12:55:00,52.9,34.8,30.05,NNE,22,1.0,6.0,50,0.00,,,0.00,WeatherCatV1.11B39,2013-03-29 16:55:00,
2013-03-29 13:00:00,52.9,34.8,30.05,NNE,22,1.0,6.0,50,0.00,,,0.00,WeatherCatV1.11B39,2013-03-29 17:00:00,
2013-03-29 13:05:00,53.2,34.5,30.05,SW,225,1.0,3.0,49,0.00,,,0.00,WeatherCatV1.11B39,2013-03-29 17:05:00,
2013-03-29 13:10:00,53.2,34.5,30.05,SW,225,1.0,3.0,49,0.00,,,0.00,WeatherCatV1.11B39,2013-03-29 17:10:00,
2013-03-29 13:15:00,53.6,33.9,30.05,SW,225,1.0,7.0,47,0.00,,,0.00,WeatherCatV1.11B39,2013-03-29 17:15:00,
2013-03-29 13:20:00,53.6,33.9,30.05,SW,225,1.0,7.0,47,0.00,,,0.00,WeatherCatV1.11B39,2013-03-29 17:20:00,
2013-03-29 13:25:00,54.0,33.2,30.05,North,0,1.0,5.0,45,0.00,,,0.00,WeatherCatV1.11B39,2013-03-29 17:25:00,
2013-03-29 13:30:00,54.0,33.2,30.05,North,0,1.0,5.0,45,0.00,,,0.00,WeatherCatV1.11B39,2013-03-29 17:30:00,
2013-03-29 13:35:00,54.1,33.8,30.04,North,0,1.0,6.0,46,0.00,,,0.00,WeatherCatV1.11B39,2013-03-29 17:35:00,
2013-03-29 13:40:00,54.1,33.8,30.04,North,0,1.0,6.0,46,0.00,,,0.00,WeatherCatV1.11B39,2013-03-29 17:40:00,
2013-03-29 13:45:00,54.2,32.8,30.04,NNE,22,1.0,5.0,44,0.00,,,0.00,WeatherCatV1.11B39,2013-03-29 17:45:00,
2013-03-29 13:50:00,54.2,32.8,30.04,NNE,22,1.0,5.0,44,0.00,,,0.00,WeatherCatV1.11B39,2013-03-29 17:50:00,
2013-03-29 13:55:00,54.2,33.3,30.04,NNE,22,1.0,6.0,45,0.00,,,0.00,WeatherCatV1.11B39,2013-03-29 17:55:00,
2013-03-29 14:00:00,54.2,33.3,30.04,NNE,22,1.0,6.0,45,0.00,,,0.00,WeatherCatV1.11B39,2013-03-29 18:00:00,
2013-03-29 14:05:00,54.4,34.6,30.03,SW,225,1.0,5.0,47,0.00,,,0.00,WeatherCatV1.11B39,2013-03-29 18:05:00,
2013-03-29 14:10:00,54.4,34.6,30.03,SW,225,1.0,5.0,47,0.00,,,0.00,WeatherCatV1.11B39,2013-03-29 18:10:00,
2013-03-29 14:15:00,56.1,33.3,30.02,SW,225,1.0,3.0,42,0.00,,,0.00,WeatherCatV1.11B39,2013-03-29 18:15:00,
2013-03-29 14:20:00,56.1,33.3,30.02,SW,225,1.0,3.0,42,0.00,,,0.00,WeatherCatV1.11B39,2013-03-29 18:20:00,
2013-03-29 14:25:00,57.5,32.1,30.02,NNW,338,2.0,7.0,38,0.00,,,0.00,WeatherCatV1.11B39,2013-03-29 18:25:00,
2013-03-29 14:30:00,57.5,32.1,30.02,NNW,338,2.0,7.0,38,0.00,,,0.00,WeatherCatV1.11B39,2013-03-29 18:30:00,
2013-03-29 14:35:00,56.6,31.3,30.01,North,0,1.0,5.0,38,0.00,,,0.00,WeatherCatV1.11B39,2013-03-29 18:35:00,
2013-03-29 14:40:00,56.6,31.3,30.01,North,0,1.0,5.0,38,0.00,,,0.00,WeatherCatV1.11B39,2013-03-29 18:40:00,
2013-03-29 14:45:00,57.7,30.9,30.01,SSW,202,1.0,5.0,36,0.00,,,0.00,WeatherCatV1.11B39,2013-03-29 18:45:00,
2013-03-29 14:50:00,57.7,30.9,30.01,SSW,202,1.0,5.0,36,0.00,,,0.00,WeatherCatV1.11B39,2013-03-29 18:50:00,
2013-03-29 14:55:00,57.1,31.7,30.00,SSE,158,1.0,4.0,38,0.00,,,0.00,WeatherCatV1.11B39,2013-03-29 18:55:00,
2013-03-29 15:00:00,57.1,31.7,30.00,SSE,158,1.0,4.0,38,0.00,,,0.00,WeatherCatV1.11B39,2013-03-29 19:00:00,
2013-03-29 15:05:00,56.5,30.5,30.00,North,0,1.0,6.0,37,0.00,,,0.00,WeatherCatV1.11B39,2013-03-29 19:05:00,
2013-03-29 15:10:00,56.5,30.5,30.00,North,0,1.0,6.0,37,0.00,,,0.00,WeatherCatV1.11B39,2013-03-29 19:10:00,
2013-03-29 15:15:00,55.5,31.6,30.00,NNE,22,1.0,5.0,40,0.00,,,0.00,WeatherCatV1.11B39,2013-03-29 19:15:00,
2013-03-29 15:20:00,55.5,31.6,30.00,NNE,22,1.0,5.0,40,0.00,,,0.00,WeatherCatV1.11B39,2013-03-29 19:20:00,
2013-03-29 15:25:00,53.9,32.5,30.00,SSW,202,2.0,10.0,44,0.00,,,0.00,WeatherCatV1.11B39,2013-03-29 19:25:00,
2013-03-29 15:30:00,53.9,32.5,30.00,SSW,202,2.0,10.0,44,0.00,,,0.00,WeatherCatV1.11B39,2013-03-29 19:30:00,
2013-03-29 15:35:00,53.4,32.0,30.00,SW,225,1.0,4.0,44,0.00,,,0.00,WeatherCatV1.11B39,2013-03-29 19:35:00,
2013-03-29 15:40:00,53.4,32.0,30.00,SW,225,1.0,4.0,44,0.00,,,0.00,WeatherCatV1.11B39,2013-03-29 19:40:00,
2013-03-29 15:45:00,54.7,33.2,29.99,SSE,158,1.0,4.0,44,0.00,,,0.00,WeatherCatV1.11B39,2013-03-29 19:45:00,
2013-03-29 15:50:00,54.7,33.2,29.99,SSE,158,1.0,4.0,44,0.00,,,0.00,WeatherCatV1.11B39,2013-03-29 19:50:00,
2013-03-29 15:55:00,57.2,34.3,29.99,SSE,158,1.0,4.0,42,0.00,,,0.00,WeatherCatV1.11B39,2013-03-29 19:55:00,
2013-03-29 16:00:00,57.2,34.3,29.99,SSE,158,1.0,4.0,42,0.00,,,0.00,WeatherCatV1.11B39,2013-03-29 20:00:00,
2013-03-29 16:05:00,56.7,31.4,29.99,SW,225,3.0,10.0,38,0.00,,,0.00,WeatherCatV1.11B39,2013-03-29 20:05:00,
2013-03-29 16:10:00,56.7,31.4,29.99,SW,225,3.0,10.0,38,0.00,,,0.00,WeatherCatV1.11B39,2013-03-29 20:10:00,
2013-03-29 16:15:00,55.7,31.1,29.99,North,0,2.0,6.0,39,0.00,,,0.00,WeatherCatV1.11B39,2013-03-29 20:15:00,
2013-03-29 16:20:00,55.7,31.1,29.99,North,0,2.0,6.0,39,0.00,,,0.00,WeatherCatV1.11B39,2013-03-29 20:20:00,
2013-03-29 16:25:00,57.3,31.3,29.99,North,0,2.0,9.0,37,0.00,,,0.00,WeatherCatV1.11B39,2013-03-29 20:25:00,
2013-03-29 16:30:00,57.3,31.3,29.99,North,0,2.0,9.0,37,0.00,,,0.00,WeatherCatV1.11B39,2013-03-29 20:30:00,
2013-03-29 16:35:00,57.9,31.8,29.99,NNE,22,1.0,4.0,37,0.00,,,0.00,WeatherCatV1.11B39,2013-03-29 20:35:00,
2013-03-29 16:40:00,57.9,31.8,29.99,NNE,22,1.0,4.0,37,0.00,,,0.00,WeatherCatV1.11B39,2013-03-29 20:40:00,
2013-03-29 16:45:00,57.6,30.8,29.98,NNW,338,1.0,4.0,36,0.00,,,0.00,WeatherCatV1.11B39,2013-03-29 20:45:00,
2013-03-29 16:58:00,57.6,30.8,29.98,NNW,338,1.0,4.0,36,0.00,,,0.00,WeatherCatV1.11B39,2013-03-29 20:58:00,
2013-03-29 17:03:00,55.1,30.0,29.99,SW,229,2.0,5.0,38,0.00,,,0.00,WeatherCatV1.11B39,2013-03-29 21:03:00,
2013-03-29 17:08:00,54.2,33.3,29.99,SSW,205,1.0,3.0,45,0.00,,,0.00,WeatherCatV1.11B39,2013-03-29 21:08:00,
2013-03-29 17:13:00,52.8,34.7,30.00,NNE,17,2.0,3.0,50,0.25,,,0.02,WeatherCatV1.11B39,2013-03-29 21:13:00,
2013-03-29 17:18:00,51.6,37.3,29.99,ENE,62,0.0,0.0,58,0.09,,,0.02,WeatherCatV1.11B39,2013-03-29 21:18:00,
2013-03-29 17:23:00,51.0,38.9,30.00,NE,46,2.0,2.0,63,0.05,,,0.02,WeatherCatV1.11B39,2013-03-29 21:23:00,
2013-03-29 17:28:00,50.7,35.6,30.00,North,9,1.0,4.0,56,0.04,,,0.02,WeatherCatV1.11B39,2013-03-29 21:28:00,
2013-03-29 17:33:00,50.8,34.3,30.00,NNW,347,1.0,1.0,53,0.00,,,0.02,WeatherCatV1.11B39,2013-03-29 21:33:00,
2013-03-29 17:38:00,50.9,34.9,30.00,North,9,2.0,3.0,54,0.00,,,0.02,WeatherCatV1.11B39,2013-03-29 21:38:00,
2013-03-29 17:43:00,51.0,34.9,30.00,NW,325,0.0,2.0,54,0.00,,,0.02,WeatherCatV1.11B39,2013-03-29 21:43:00,
2013-03-29 17:48:00,50.9,35.3,30.00,NNW,345,0.0,2.0,55,0.00,,,0.02,WeatherCatV1.11B39,2013-03-29 21:48:00,
2013-03-29 17:53:00,50.9,35.8,30.00,NNW,347,0.0,1.0,56,0.00,,,0.02,WeatherCatV1.11B39,2013-03-29 21:53:00,
2013-03-29 17:58:00,51.0,35.9,30.00,NNE,24,0.0,1.0,56,0.00,,,0.02,WeatherCatV1.11B39,2013-03-29 21:58:00,
2013-03-29 18:03:00,51.0,34.9,30.00,WSW,238,0.0,1.0,54,0.00,,,0.02,WeatherCatV1.11B39,2013-03-29 22:03:00,
2013-03-29 18:08:00,51.0,34.9,30.00,South,181,0.0,1.0,54,0.00,,,0.02,WeatherCatV1.11B39,2013-03-29 22:08:00,
2013-03-29 18:13:00,51.0,34.9,30.00,WNW,284,0.0,2.0,54,0.00,,,0.02,WeatherCatV1.11B39,2013-03-29 22:13:00,
2013-03-29 18:18:00,50.9,34.9,30.00,SW,218,0.0,2.0,54,0.00,,,0.02,WeatherCatV1.11B39,2013-03-29 22:18:00,
2013-03-29 18:23:00,50.9,34.4,30.01,NNW,340,0.0,4.0,53,0.00,,,0.02,WeatherCatV1.11B39,2013-03-29 22:23:00,
2013-03-29 18:28:00,50.8,34.8,30.01,NNW,348,0.0,0.0,54,0.00,,,0.02,WeatherCatV1.11B39,2013-03-29 22:28:00,
2013-03-29 18:33:00,50.7,35.1,30.01,NNW,336,1.0,1.0,55,0.00,,,0.02,WeatherCatV1.11B39,2013-03-29 22:33:00,
2013-03-29 18:38:00,50.6,33.6,30.01,SE,136,0.0,1.0,52,0.00,,,0.02,WeatherCatV1.11B39,2013-03-29 22:38:00,
2013-03-29 18:43:00,50.5,34.0,30.01,SSE,162,1.0,1.0,53,0.00,,,0.02,WeatherCatV1.11B39,2013-03-29 22:43:00,
2013-03-29 18:48:00,50.3,33.4,30.01,NNE,29,0.0,1.0,52,0.00,,,0.02,WeatherCatV1.11B39,2013-03-29 22:48:00,
2013-03-29 18:53:00,50.2,33.7,30.01,WNW,300,0.0,1.0,53,0.00,,,0.02,WeatherCatV1.11B39,2013-03-29 22:53:00,
2013-03-29 18:58:00,50.1,33.6,30.01,WSW,243,0.0,1.0,53,0.00,,,0.02,WeatherCatV1.11B39,2013-03-29 22:58:00,
2013-03-29 19:03:00,50.1,33.6,30.01,SW,222,0.0,1.0,53,0.00,,,0.02,WeatherCatV1.11B39,2013-03-29 23:03:00,
2013-03-29 19:08:00,49.9,33.5,30.01,SE,137,0.0,0.0,53,0.00,,,0.02,WeatherCatV1.11B39,2013-03-29 23:08:00,
2013-03-29 19:13:00,49.8,33.4,30.01,SE,140,0.0,0.0,53,0.00,,,0.02,WeatherCatV1.11B39,2013-03-29 23:13:00,
2013-03-29 19:18:00,49.6,34.6,30.01,SE,139,0.0,0.0,56,0.00,,,0.02,WeatherCatV1.11B39,2013-03-29 23:18:00,
2013-03-29 19:23:00,49.2,34.2,30.01,SE,139,0.0,0.0,56,0.00,,,0.02,WeatherCatV1.11B39,2013-03-29 23:23:00,
2013-03-29 19:28:00,48.8,33.8,30.01,SE,139,0.0,0.0,56,0.00,,,0.02,WeatherCatV1.11B39,2013-03-29 23:28:00,
2013-03-29 19:33:00,48.5,33.5,30.01,SE,139,0.0,0.0,56,0.00,,,0.02,WeatherCatV1.11B39,2013-03-29 23:33:00,
2013-03-29 19:38:00,48.2,34.6,30.01,SE,140,0.0,0.0,59,0.00,,,0.02,WeatherCatV1.11B39,2013-03-29 23:38:00,
2013-03-29 19:43:00,48.0,34.4,30.02,SE,140,0.0,0.0,59,0.00,,,0.02,WeatherCatV1.11B39,2013-03-29 23:43:00,
2013-03-29 19:48:00,47.7,34.5,30.02,SE,139,0.0,0.0,60,0.00,,,0.02,WeatherCatV1.11B39,2013-03-29 23:48:00,
2013-03-29 19:53:00,47.5,35.1,30.02,SE,139,0.0,0.0,62,0.00,,,0.02,WeatherCatV1.11B39,2013-03-29 23:53:00,
2013-03-29 19:58:00,47.2,35.3,30.02,SE,140,0.0,0.0,63,0.00,,,0.02,WeatherCatV1.11B39,2013-03-29 23:58:00,
2013-03-29 20:03:00,47.0,35.1,30.02,SE,140,0.0,0.0,63,0.00,,,0.02,WeatherCatV1.11B39,2013-03-30 00:03:00,
2013-03-29 20:08:00,46.9,35.8,30.02,SSE,153,0.0,1.0,65,0.00,,,0.02,WeatherCatV1.11B39,2013-03-30 00:08:00,
2013-03-29 20:13:00,46.8,35.3,30.03,SSE,153,0.0,0.0,64,0.00,,,0.02,WeatherCatV1.11B39,2013-03-30 00:13:00,
2013-03-29 20:18:00,46.9,35.0,30.03,SSE,153,0.0,0.0,63,0.00,,,0.02,WeatherCatV1.11B39,2013-03-30 00:18:00,
2013-03-29 20:23:00,47.1,34.4,30.04,North,354,0.0,1.0,61,0.00,,,0.02,WeatherCatV1.11B39,2013-03-30 00:23:00,
2013-03-29 20:28:00,47.3,33.3,30.04,NNW,333,0.0,3.0,58,0.00,,,0.02,WeatherCatV1.11B39,2013-03-30 00:28:00,
2013-03-29 20:33:00,47.8,33.3,30.04,NE,36,0.0,2.0,57,0.00,,,0.02,WeatherCatV1.11B39,2013-03-30 00:33:00,
2013-03-29 20:38:00,47.9,33.0,30.04,West,280,0.0,2.0,56,0.00,,,0.02,WeatherCatV1.11B39,2013-03-30 00:38:00,
2013-03-29 20:43:00,47.9,33.0,30.04,NNW,348,0.0,1.0,56,0.00,,,0.02,WeatherCatV1.11B39,2013-03-30 00:43:00,
2013-03-29 20:48:00,47.6,32.7,30.05,NNE,30,0.0,1.0,56,0.00,,,0.02,WeatherCatV1.11B39,2013-03-30 00:48:00,
2013-03-29 20:53:00,47.5,32.6,30.05,NNE,26,0.0,3.0,56,0.00,,,0.02,WeatherCatV1.11B39,2013-03-30 00:53:00,
2013-03-29 20:58:00,47.5,32.6,30.05,SW,231,1.0,2.0,56,0.00,,,0.02,WeatherCatV1.11B39,2013-03-30 00:58:00,
2013-03-29 21:03:00,47.4,32.5,30.05,NW,319,1.0,3.0,56,0.00,,,0.02,WeatherCatV1.11B39,2013-03-30 01:03:00,
2013-03-29 21:08:00,47.3,32.4,30.05,North,11,0.0,1.0,56,0.00,,,0.02,WeatherCatV1.11B39,2013-03-30 01:08:00,
2013-03-29 21:13:00,47.2,32.3,30.05,North,5,0.0,2.0,56,0.00,,,0.02,WeatherCatV1.11B39,2013-03-30 01:13:00,
2013-03-29 21:18:00,47.1,32.7,30.05,NNW,335,0.0,2.0,57,0.00,,,0.02,WeatherCatV1.11B39,2013-03-30 01:18:00,
2013-03-29 21:23:00,46.8,32.4,30.05,NW,318,0.0,0.0,57,0.00,,,0.02,WeatherCatV1.11B39,2013-03-30 01:23:00,
2013-03-29 21:28:00,46.6,32.6,30.05,WSW,242,0.0,1.0,58,0.00,,,0.02,WeatherCatV1.11B39,2013-03-30 01:28:00,
2013-03-29 21:33:00,46.3,32.8,30.06,WSW,242,0.0,0.0,59,0.00,,,0.02,WeatherCatV1.11B39,2013-03-30 01:33:00,
2013-03-29 21:38:00,46.0,32.5,30.06,WSW,249,0.0,1.0,59,0.00,,,0.02,WeatherCatV1.11B39,2013-03-30 01:38:00,
2013-03-29 21:43:00,45.8,32.7,30.06,North,359,0.0,0.0,60,0.00,,,0.02,WeatherCatV1.11B39,2013-03-30 01:43:00,
2013-03-29 21:48:00,45.5,32.4,30.06,WNW,300,0.0,1.0,60,0.00,,,0.02,WeatherCatV1.11B39,2013-03-30 01:48:00,
2013-03-29 21:53:00,45.3,33.1,30.06,WNW,300,0.0,0.0,62,0.00,,,0.02,WeatherCatV1.11B39,2013-03-30 01:53:00,
2013-03-29 21:58:00,45.1,32.9,30.06,WNW,301,0.0,1.0,62,0.00,,,0.02,WeatherCatV1.11B39,2013-03-30 01:58:00,
2013-03-29 22:03:00,45.1,32.9,30.06,North,351,0.0,2.0,62,0.00,,,0.02,WeatherCatV1.11B39,2013-03-30 02:03:00,
2013-03-29 22:08:00,45.0,33.2,30.06,North,351,0.0,0.0,63,0.00,,,0.02,WeatherCatV1.11B39,2013-03-30 02:08:00,
2013-03-29 22:13:00,45.0,32.8,30.06,West,274,0.0,0.0,62,0.00,,,0.02,WeatherCatV1.11B39,2013-03-30 02:13:00,
2013-03-29 22:18:00,44.9,33.1,30.06,West,274,0.0,0.0,63,0.00,,,0.02,WeatherCatV1.11B39,2013-03-30 02:18:00,
2013-03-29 22:23:00,44.9,33.5,30.06,WNW,302,0.0,0.0,64,0.00,,,0.02,WeatherCatV1.11B39,2013-03-30 02:23:00,
2013-03-29 22:28:00,44.8,33.4,30.06,WNW,302,0.0,0.0,64,0.00,,,0.02,WeatherCatV1.11B39,2013-03-30 02:28:00,
2013-03-29 22:33:00,44.7,32.9,30.06,North,11,0.0,0.0,63,0.00,,,0.02,WeatherCatV1.11B39,2013-03-30 02:33:00,
2013-03-29 22:38:00,44.7,32.9,30.06,NNW,347,0.0,1.0,63,0.00,,,0.02,WeatherCatV1.11B39,2013-03-30 02:38:00,
2013-03-29 22:43:00,44.6,33.2,30.06,SW,217,0.0,0.0,64,0.00,,,0.02,WeatherCatV1.11B39,2013-03-30 02:43:00,
2013-03-29 22:48:00,44.5,32.7,30.06,SW,217,0.0,1.0,63,0.00,,,0.02,WeatherCatV1.11B39,2013-03-30 02:48:00,
2013-03-29 22:53:00,44.5,33.1,30.06,SW,214,0.0,1.0,64,0.00,,,0.02,WeatherCatV1.11B39,2013-03-30 02:53:00,
2013-03-29 22:58:00,44.5,32.7,30.06,North,352,0.0,2.0,63,0.00,,,0.02,WeatherCatV1.11B39,2013-03-30 02:58:00,
2013-03-29 23:03:00,44.6,33.2,30.06,SSE,150,0.0,1.0,64,0.00,,,0.02,WeatherCatV1.11B39,2013-03-30 03:03:00,
2013-03-29 23:08:00,44.6,33.2,30.06,SW,222,2.0,2.0,64,0.00,,,0.02,WeatherCatV1.11B39,2013-03-30 03:08:00,
2013-03-29 23:13:00,44.7,33.3,30.06,NNW,337,0.0,2.0,64,0.00,,,0.02,WeatherCatV1.11B39,2013-03-30 03:13:00,
2013-03-29 23:18:00,44.6,33.2,30.06,WSW,255,0.0,1.0,64,0.00,,,0.02,WeatherCatV1.11B39,2013-03-30 03:18:00,
2013-03-29 23:23:00,44.6,33.2,30.06,SSW,207,0.0,0.0,64,0.00,,,0.02,WeatherCatV1.11B39,2013-03-30 03:23:00,
2013-03-29 23:28:00,44.5,33.1,30.06,SSW,211,0.0,1.0,64,0.00,,,0.02,WeatherCatV1.11B39,2013-03-30 03:28:00,
2013-03-29 23:33:00,44.5,33.1,30.06,SSW,210,0.0,1.0,64,0.00,,,0.02,WeatherCatV1.11B39,2013-03-30 03:33:00,
2013-03-29 23:38:00,44.4,33.0,30.06,WNW,294,0.0,0.0,64,0.00,,,0.02,WeatherCatV1.11B39,2013-03-30 03:38:00,
2013-03-29 23:43:00,44.3,33.3,30.06,NE,56,0.0,1.0,65,0.00,,,0.02,WeatherCatV1.11B39,2013-03-30 03:43:00,
2013-03-29 23:48:00,44.3,33.3,30.06,ENE,71,0.0,2.0,65,0.00,,,0.02,WeatherCatV1.11B39,2013-03-30 03:48:00,
2013-03-29 23:53:00,44.3,33.3,30.06,SSW,197,1.0,3.0,65,0.00,,,0.02,WeatherCatV1.11B39,2013-03-30 03:53:00,
2013-03-29 23:58:00,44.2,33.2,30.06,SSW,209,0.0,0.0,65,0.00,,,0.02,WeatherCatV1.11B39,2013-03-30 03:58:00,